Bautista Pino — EASK — position and weather

sailwx.info

Track history (hours):
 
Tides and Currents Weather Stations Pressure Air Temp Water Temp Dewpoint Dewpoint Depression Visibility Wind Speed Wind Dir Waves Ship Positions

Bautista Pino

Last reported at 2016-Sep-04 22:07 UTC. Time now 2016-Sep-25 22:37 UTC.
Position N 43°48' W 007°40'.
Warning: this ship's position is 21 days out of date.

Length 29 m; draft 3.5 m.

Type: Fishing. MMSI: 224181290.

Date/timePositionNaut miles runAvg speedWind from/ knotsBaromVisibWave heightAir tempDewpointWater temp
2016-Sep-04 22:07N 43°48' W 007°40'5 8.9
2016-Sep-04 21:33N 43°44' W 007°36'3 2.6
2016-Sep-04 20:28N 43°41' W 007°36'0 0.0
2016-Sep-02 20:32N 43°41' W 007°36'0 0.2
2016-Sep-02 19:33N 43°41' W 007°36'6 5.7
2016-Sep-02 18:33N 43°45' W 007°31'1010.0
2016-Sep-02 17:33N 43°48' W 007°18'2 0.1
2016-Sep-02 03:12N 43°50' W 007°19'1 0.9
2016-Sep-02 02:30N 43°51' W 007°19'1 0.8
2016-Sep-02 01:32N 43°51' W 007°18'0 0.4
2016-Sep-02 00:30N 43°51' W 007°18'2 1.7
2016-Sep-01 23:16N 43°51' W 007°15'2 0.1
2016-Sep-01 07:23N 43°51' W 007°12'  
2016-Aug-26 00:33N 43°46' W 007°23'1 0.6
2016-Aug-25 23:33N 43°46' W 007°23'1 0.8
2016-Aug-25 22:32N 43°47' W 007°23'  
Track history (hours):
 
Tides and Currents Weather Stations Pressure Air Temp Water Temp Dewpoint Dewpoint Depression Visibility Wind Speed Wind Dir Waves Ship Positions

Bautista Pino

Last reported at 2016-Sep-04 22:07 UTC. Time now 2016-Sep-25 22:37 UTC.
Position N 43°48' W 007°40'.
Warning: this ship's position is 21 days out of date.

Length 29 m; draft 3.5 m.

Type: Fishing. MMSI: 224181290.

Date/timePositionNaut miles runAvg speedWind from/ knotsBaromVisibWave heightAir tempDewpointWater temp
2016-Sep-04 22:07N 43°48' W 007°40'5 8.9
2016-Sep-04 21:33N 43°44' W 007°36'3 2.6
2016-Sep-04 20:28N 43°41' W 007°36'0 0.0
2016-Sep-02 20:32N 43°41' W 007°36'0 0.2
2016-Sep-02 19:33N 43°41' W 007°36'6 5.7
2016-Sep-02 18:33N 43°45' W 007°31'1010.0
2016-Sep-02 17:33N 43°48' W 007°18'2 0.1
2016-Sep-02 03:12N 43°50' W 007°19'1 0.9
2016-Sep-02 02:30N 43°51' W 007°19'1 0.8
2016-Sep-02 01:32N 43°51' W 007°18'0 0.4
2016-Sep-02 00:30N 43°51' W 007°18'2 1.7
2016-Sep-01 23:16N 43°51' W 007°15'2 0.1
2016-Sep-01 07:23N 43°51' W 007°12'  
2016-Aug-26 00:33N 43°46' W 007°23'1 0.6
2016-Aug-25 23:33N 43°46' W 007°23'1 0.8
2016-Aug-25 22:32N 43°47' W 007°23'  

Dump ship's entire track history